McIntyre, Georgia
Current Conditions -  °F | °C
As of 6:15 PM on Thursday 27 Nov 2014 (Local Time) from KMLJ Reporting Station
Clear Clear  
Wind Chill: 40°   Ceiling: Unl
Heat Index: 45°   Visibility: 10mi
Dew Point: 32°   Wind: 8mph
Humidity: 61%   Direction: 310°NW
Pressure: 30.31"   Gusts: 16mph
Location:  32.85°N, 83.19°W
Report Text: KMLJ 272315Z AUTO 31007G14KT 280V350 10SM CLR 07/00 A3031 RMK AO2
Loading
Personal Weather Stations






























Interactive Weather Map New forecast layout! Learn more

10-Day Weather Forecast

Advertisements
Track Severe Weather on mobile